sensor_id;sensor_type;location;lat;lon;timestamp;pressure;altitude;pressure_sealevel;temperature;humidity
47811;BME280;33575;52.600;7.318;2024-02-16T00:02:06;100839.39;;;10.24;100.00
47811;BME280;33575;52.600;7.318;2024-02-16T00:04:37;100834.62;;;10.23;100.00
47811;BME280;33575;52.600;7.318;2024-02-16T00:07:07;100829.24;;;10.21;100.00
47811;BME280;33575;52.600;7.318;2024-02-16T00:09:38;100833.64;;;10.19;100.00
47811;BME280;33575;52.600;7.318;2024-02-16T00:12:08;100835.91;;;10.17;99.86
47811;BME280;33575;52.600;7.318;2024-02-16T00:14:39;100829.46;;;10.18;100.00
47811;BME280;33575;52.600;7.318;2024-02-16T00:17:09;100830.80;;;10.15;100.00
47811;BME280;33575;52.600;7.318;2024-02-16T00:19:40;100828.05;;;10.16;100.00
47811;BME280;33575;52.600;7.318;2024-02-16T00:22:10;100831.08;;;10.13;100.00
47811;BME280;33575;52.600;7.318;2024-02-16T00:24:41;100828.14;;;10.21;99.88
47811;BME280;33575;52.600;7.318;2024-02-16T00:27:12;100826.15;;;10.18;100.00
47811;BME280;33575;52.600;7.318;2024-02-16T00:29:43;100827.60;;;10.24;99.88
47811;BME280;33575;52.600;7.318;2024-02-16T00:32:13;100824.41;;;10.24;99.58
47811;BME280;33575;52.600;7.318;2024-02-16T00:34:43;100821.23;;;10.23;99.77
47811;BME280;33575;52.600;7.318;2024-02-16T00:37:14;100824.60;;;10.15;100.00
47811;BME280;33575;52.600;7.318;2024-02-16T00:39:44;100820.35;;;10.05;100.00
47811;BME280;33575;52.600;7.318;2024-02-16T00:42:15;100816.75;;;10.08;100.00
47811;BME280;33575;52.600;7.318;2024-02-16T00:44:45;100815.26;;;10.11;100.00
47811;BME280;33575;52.600;7.318;2024-02-16T00:47:16;100814.04;;;10.13;100.00
47811;BME280;33575;52.600;7.318;2024-02-16T00:49:46;100811.73;;;10.11;100.00
47811;BME280;33575;52.600;7.318;2024-02-16T00:52:17;100811.97;;;10.12;100.00
47811;BME280;33575;52.600;7.318;2024-02-16T00:54:47;100814.48;;;10.07;100.00
47811;BME280;33575;52.600;7.318;2024-02-16T00:57:18;100813.91;;;10.11;100.00
47811;BME280;33575;52.600;7.318;2024-02-16T00:59:49;100807.95;;;10.11;100.00
47811;BME280;33575;52.600;7.318;2024-02-16T01:02:19;100805.71;;;10.10;100.00
47811;BME280;33575;52.600;7.318;2024-02-16T01:04:50;100800.44;;;10.12;100.00
47811;BME280;33575;52.600;7.318;2024-02-16T01:07:20;100796.25;;;10.19;100.00
47811;BME280;33575;52.600;7.318;2024-02-16T01:09:50;100791.18;;;10.25;100.00
47811;BME280;33575;52.600;7.318;2024-02-16T01:12:21;100784.93;;;10.25;100.00
47811;BME280;33575;52.600;7.318;2024-02-16T01:14:51;100786.46;;;10.23;100.00
47811;BME280;33575;52.600;7.318;2024-02-16T01:17:22;100782.91;;;10.26;99.46
47811;BME280;33575;52.600;7.318;2024-02-16T01:19:52;100782.53;;;10.21;100.00
47811;BME280;33575;52.600;7.318;2024-02-16T01:22:23;100779.40;;;10.20;99.79
47811;BME280;33575;52.600;7.318;2024-02-16T01:24:53;100776.73;;;10.13;99.63
47811;BME280;33575;52.600;7.318;2024-02-16T01:27:24;100772.68;;;10.18;100.00
47811;BME280;33575;52.600;7.318;2024-02-16T01:29:54;100771.93;;;10.12;100.00
47811;BME280;33575;52.600;7.318;2024-02-16T01:32:25;100765.19;;;10.12;99.53
47811;BME280;33575;52.600;7.318;2024-02-16T01:34:56;100763.39;;;10.10;100.00
47811;BME280;33575;52.600;7.318;2024-02-16T01:37:26;100763.52;;;10.06;99.79
47811;BME280;33575;52.600;7.318;2024-02-16T01:39:56;100764.22;;;10.08;99.75
47811;BME280;33575;52.600;7.318;2024-02-16T01:42:27;100761.09;;;10.16;100.00
47811;BME280;33575;52.600;7.318;2024-02-16T01:44:57;100760.82;;;10.19;100.00
47811;BME280;33575;52.600;7.318;2024-02-16T01:47:28;100756.19;;;10.15;99.61
47811;BME280;33575;52.600;7.318;2024-02-16T01:49:59;100755.66;;;10.14;99.66
47811;BME280;33575;52.600;7.318;2024-02-16T01:52:30;100759.12;;;10.11;99.37
47811;BME280;33575;52.600;7.318;2024-02-16T01:55:00;100753.92;;;10.12;99.47
47811;BME280;33575;52.600;7.318;2024-02-16T01:57:31;100753.24;;;10.14;99.78
47811;BME280;33575;52.600;7.318;2024-02-16T02:00:01;100756.56;;;10.09;99.97
47811;BME280;33575;52.600;7.318;2024-02-16T02:02:31;100754.36;;;10.15;99.63
47811;BME280;33575;52.600;7.318;2024-02-16T02:05:03;100750.72;;;10.15;99.53
47811;BME280;33575;52.600;7.318;2024-02-16T02:07:33;100749.85;;;10.23;99.90
47811;BME280;33575;52.600;7.318;2024-02-16T02:10:03;100744.07;;;10.31;99.67
47811;BME280;33575;52.600;7.318;2024-02-16T02:12:33;100741.35;;;10.34;99.65
47811;BME280;33575;52.600;7.318;2024-02-16T02:15:05;100742.97;;;10.36;99.41
47811;BME280;33575;52.600;7.318;2024-02-16T02:17:34;100737.05;;;10.45;99.37
47811;BME280;33575;52.600;7.318;2024-02-16T02:20:06;100733.91;;;10.48;99.11
47811;BME280;33575;52.600;7.318;2024-02-16T02:22:35;100725.40;;;10.48;98.91
47811;BME280;33575;52.600;7.318;2024-02-16T02:25:06;100723.17;;;10.42;99.13
47811;BME280;33575;52.600;7.318;2024-02-16T02:27:36;100729.97;;;10.50;99.07
47811;BME280;33575;52.600;7.318;2024-02-16T02:30:08;100733.20;;;10.51;98.85
47811;BME280;33575;52.600;7.318;2024-02-16T02:32:37;100727.67;;;10.52;98.78
47811;BME280;33575;52.600;7.318;2024-02-16T02:35:08;100717.88;;;10.54;98.59
47811;BME280;33575;52.600;7.318;2024-02-16T02:37:38;100720.92;;;10.52;98.52
47811;BME280;33575;52.600;7.318;2024-02-16T02:40:09;100716.72;;;10.55;98.55
47811;BME280;33575;52.600;7.318;2024-02-16T02:42:39;100718.67;;;10.56;98.73
47811;BME280;33575;52.600;7.318;2024-02-16T02:45:10;100719.67;;;10.57;98.31
47811;BME280;33575;52.600;7.318;2024-02-16T02:47:40;100714.76;;;10.59;98.48
47811;BME280;33575;52.600;7.318;2024-02-16T02:50:11;100712.53;;;10.60;98.13
47811;BME280;33575;52.600;7.318;2024-02-16T02:52:41;100710.80;;;10.61;98.02
47811;BME280;33575;52.600;7.318;2024-02-16T02:55:12;100703.64;;;10.63;97.91
47811;BME280;33575;52.600;7.318;2024-02-16T02:57:42;100705.00;;;10.66;97.85
47811;BME280;33575;52.600;7.318;2024-02-16T03:00:15;100705.29;;;10.64;97.71
47811;BME280;33575;52.600;7.318;2024-02-16T03:02:43;100701.10;;;10.71;97.45
47811;BME280;33575;52.600;7.318;2024-02-16T03:05:14;100700.10;;;10.70;97.55
47811;BME280;33575;52.600;7.318;2024-02-16T03:07:44;100701.91;;;10.73;97.70
47811;BME280;33575;52.600;7.318;2024-02-16T03:10:15;100704.64;;;10.73;97.36
47811;BME280;33575;52.600;7.318;2024-02-16T03:12:45;100702.28;;;10.77;97.34
47811;BME280;33575;52.600;7.318;2024-02-16T03:15:16;100699.84;;;10.74;97.41
47811;BME280;33575;52.600;7.318;2024-02-16T03:17:46;100693.60;;;10.75;97.42
47811;BME280;33575;52.600;7.318;2024-02-16T03:20:17;100691.92;;;10.71;97.30
47811;BME280;33575;52.600;7.318;2024-02-16T03:22:48;100693.34;;;10.71;97.33
47811;BME280;33575;52.600;7.318;2024-02-16T03:25:18;100693.53;;;10.74;97.23
47811;BME280;33575;52.600;7.318;2024-02-16T03:27:48;100689.50;;;10.71;97.24
47811;BME280;33575;52.600;7.318;2024-02-16T03:30:19;100688.00;;;10.64;96.97
47811;BME280;33575;52.600;7.318;2024-02-16T03:32:49;100692.18;;;10.59;97.19
47811;BME280;33575;52.600;7.318;2024-02-16T03:35:19;100687.14;;;10.59;96.98
47811;BME280;33575;52.600;7.318;2024-02-16T03:37:50;100691.57;;;10.58;97.04
47811;BME280;33575;52.600;7.318;2024-02-16T03:40:21;100692.02;;;10.60;96.93
47811;BME280;33575;52.600;7.318;2024-02-16T03:42:51;100691.46;;;10.57;96.88
47811;BME280;33575;52.600;7.318;2024-02-16T03:45:23;100696.68;;;10.62;96.83
47811;BME280;33575;52.600;7.318;2024-02-16T03:47:52;100697.21;;;10.63;96.91
47811;BME280;33575;52.600;7.318;2024-02-16T03:50:22;100684.61;;;10.57;96.62
47811;BME280;33575;52.600;7.318;2024-02-16T03:52:53;100678.66;;;10.54;96.87
47811;BME280;33575;52.600;7.318;2024-02-16T03:55:23;100684.46;;;10.48;97.02
47811;BME280;33575;52.600;7.318;2024-02-16T03:57:54;100679.92;;;10.46;96.84
47811;BME280;33575;52.600;7.318;2024-02-16T04:00:24;100680.73;;;10.46;96.91
47811;BME280;33575;52.600;7.318;2024-02-16T04:02:55;100676.66;;;10.41;96.97
47811;BME280;33575;52.600;7.318;2024-02-16T04:05:25;100671.67;;;10.42;97.32
47811;BME280;33575;52.600;7.318;2024-02-16T04:07:56;100674.98;;;10.30;97.08
47811;BME280;33575;52.600;7.318;2024-02-16T04:10:26;100670.04;;;10.31;97.49
47811;BME280;33575;52.600;7.318;2024-02-16T04:12:57;100672.15;;;10.28;97.38
47811;BME280;33575;52.600;7.318;2024-02-16T04:15:27;100671.00;;;10.20;97.78
47811;BME280;33575;52.600;7.318;2024-02-16T04:17:58;100669.57;;;10.18;97.99
47811;BME280;33575;52.600;7.318;2024-02-16T04:20:28;100669.65;;;10.18;98.22
47811;BME280;33575;52.600;7.318;2024-02-16T04:22:58;100679.77;;;10.19;98.25
47811;BME280;33575;52.600;7.318;2024-02-16T04:25:29;100673.25;;;10.21;98.15
47811;BME280;33575;52.600;7.318;2024-02-16T04:27:59;100673.05;;;10.21;97.98
47811;BME280;33575;52.600;7.318;2024-02-16T04:30:30;100674.91;;;10.22;98.02
47811;BME280;33575;52.600;7.318;2024-02-16T04:33:01;100672.00;;;10.20;98.02
47811;BME280;33575;52.600;7.318;2024-02-16T04:35:31;100675.09;;;10.23;98.11
47811;BME280;33575;52.600;7.318;2024-02-16T04:38:01;100669.92;;;10.20;98.18
47811;BME280;33575;52.600;7.318;2024-02-16T04:40:34;100665.43;;;10.21;98.06
47811;BME280;33575;52.600;7.318;2024-02-16T04:43:03;100666.96;;;10.24;98.18
47811;BME280;33575;52.600;7.318;2024-02-16T04:45:33;100656.52;;;10.22;98.22
47811;BME280;33575;52.600;7.318;2024-02-16T04:48:04;100660.81;;;10.22;98.38
47811;BME280;33575;52.600;7.318;2024-02-16T04:50:34;100673.05;;;10.22;98.30
47811;BME280;33575;52.600;7.318;2024-02-16T04:53:04;100675.08;;;10.20;98.38
47811;BME280;33575;52.600;7.318;2024-02-16T04:55:35;100681.19;;;10.21;98.43
47811;BME280;33575;52.600;7.318;2024-02-16T04:58:05;100679.09;;;10.26;98.50
47811;BME280;33575;52.600;7.318;2024-02-16T05:00:37;100684.36;;;10.26;98.46
47811;BME280;33575;52.600;7.318;2024-02-16T05:03:07;100677.91;;;10.34;98.68
47811;BME280;33575;52.600;7.318;2024-02-16T05:05:37;100681.79;;;10.33;98.61
47811;BME280;33575;52.600;7.318;2024-02-16T05:08:07;100681.51;;;10.34;98.65
47811;BME280;33575;52.600;7.318;2024-02-16T05:10:38;100676.91;;;10.38;98.62
47811;BME280;33575;52.600;7.318;2024-02-16T05:13:08;100673.80;;;10.33;98.55
47811;BME280;33575;52.600;7.318;2024-02-16T05:15:39;100673.34;;;10.35;98.43
47811;BME280;33575;52.600;7.318;2024-02-16T05:18:10;100678.49;;;10.35;98.16
47811;BME280;33575;52.600;7.318;2024-02-16T05:20:40;100674.68;;;10.33;98.24
47811;BME280;33575;52.600;7.318;2024-02-16T05:23:10;100672.08;;;10.38;98.20
47811;BME280;33575;52.600;7.318;2024-02-16T05:25:41;100675.85;;;10.36;98.06
47811;BME280;33575;52.600;7.318;2024-02-16T05:28:11;100678.97;;;10.38;99.36
47811;BME280;33575;52.600;7.318;2024-02-16T05:30:42;100678.17;;;10.40;99.53
47811;BME280;33575;52.600;7.318;2024-02-16T05:33:12;100683.64;;;10.40;99.52
47811;BME280;33575;52.600;7.318;2024-02-16T05:35:43;100679.74;;;10.37;99.54
47811;BME280;33575;52.600;7.318;2024-02-16T05:38:13;100676.27;;;10.38;99.51
47811;BME280;33575;52.600;7.318;2024-02-16T05:40:44;100671.55;;;10.39;99.13
47811;BME280;33575;52.600;7.318;2024-02-16T05:43:14;100666.62;;;10.46;99.15
47811;BME280;33575;52.600;7.318;2024-02-16T05:45:45;100669.92;;;10.45;98.93
47811;BME280;33575;52.600;7.318;2024-02-16T05:48:15;100670.06;;;10.46;98.66
47811;BME280;33575;52.600;7.318;2024-02-16T05:50:46;100674.90;;;10.48;98.39
47811;BME280;33575;52.600;7.318;2024-02-16T05:53:16;100674.87;;;10.50;98.14
47811;BME280;33575;52.600;7.318;2024-02-16T05:55:47;100676.16;;;10.53;98.06
47811;BME280;33575;52.600;7.318;2024-02-16T05:58:17;100675.00;;;10.54;98.10
47811;BME280;33575;52.600;7.318;2024-02-16T06:00:48;100675.40;;;10.54;98.00
47811;BME280;33575;52.600;7.318;2024-02-16T06:03:18;100677.68;;;10.57;97.68
47811;BME280;33575;52.600;7.318;2024-02-16T06:05:49;100676.02;;;10.60;97.80
47811;BME280;33575;52.600;7.318;2024-02-16T06:08:19;100669.31;;;10.59;97.78
47811;BME280;33575;52.600;7.318;2024-02-16T06:10:50;100665.93;;;10.53;97.42
47811;BME280;33575;52.600;7.318;2024-02-16T06:13:20;100662.30;;;10.58;97.22
47811;BME280;33575;52.600;7.318;2024-02-16T06:15:50;100664.45;;;10.57;97.02
47811;BME280;33575;52.600;7.318;2024-02-16T06:18:21;100660.65;;;10.59;97.18
47811;BME280;33575;52.600;7.318;2024-02-16T06:20:51;100668.34;;;10.57;96.92
47811;BME280;33575;52.600;7.318;2024-02-16T06:23:22;100662.99;;;10.56;96.92
47811;BME280;33575;52.600;7.318;2024-02-16T06:25:52;100661.23;;;10.55;96.98
47811;BME280;33575;52.600;7.318;2024-02-16T06:28:23;100662.79;;;10.54;96.91
47811;BME280;33575;52.600;7.318;2024-02-16T06:30:53;100663.40;;;10.54;97.04
47811;BME280;33575;52.600;7.318;2024-02-16T06:33:24;100662.38;;;10.53;96.99
47811;BME280;33575;52.600;7.318;2024-02-16T06:35:54;100662.98;;;10.54;96.65
47811;BME280;33575;52.600;7.318;2024-02-16T06:38:25;100661.86;;;10.54;96.73
47811;BME280;33575;52.600;7.318;2024-02-16T06:40:56;100668.49;;;10.58;96.86
47811;BME280;33575;52.600;7.318;2024-02-16T06:43:26;100666.24;;;10.50;96.74
47811;BME280;33575;52.600;7.318;2024-02-16T06:45:56;100669.01;;;10.43;96.98
47811;BME280;33575;52.600;7.318;2024-02-16T06:48:27;100666.48;;;10.46;97.20
47811;BME280;33575;52.600;7.318;2024-02-16T06:50:58;100668.63;;;10.44;97.13
47811;BME280;33575;52.600;7.318;2024-02-16T06:53:28;100668.44;;;10.43;97.25
47811;BME280;33575;52.600;7.318;2024-02-16T06:55:59;100666.69;;;10.42;97.09
47811;BME280;33575;52.600;7.318;2024-02-16T06:58:29;100672.73;;;10.39;97.27
47811;BME280;33575;52.600;7.318;2024-02-16T07:01:00;100676.52;;;10.40;97.37
47811;BME280;33575;52.600;7.318;2024-02-16T07:03:30;100682.35;;;10.46;97.14
47811;BME280;33575;52.600;7.318;2024-02-16T07:06:01;100683.32;;;10.45;96.88
47811;BME280;33575;52.600;7.318;2024-02-16T07:08:31;100683.69;;;10.52;97.24
47811;BME280;33575;52.600;7.318;2024-02-16T07:11:02;100682.55;;;10.51;97.24
47811;BME280;33575;52.600;7.318;2024-02-16T07:13:32;100684.19;;;10.57;97.10
47811;BME280;33575;52.600;7.318;2024-02-16T07:16:03;100688.89;;;10.54;97.07
47811;BME280;33575;52.600;7.318;2024-02-16T07:18:33;100682.23;;;10.60;97.07
47811;BME280;33575;52.600;7.318;2024-02-16T07:21:04;100681.54;;;10.63;97.22
47811;BME280;33575;52.600;7.318;2024-02-16T07:23:34;100683.29;;;10.68;96.87
47811;BME280;33575;52.600;7.318;2024-02-16T07:26:08;100691.17;;;10.66;97.02
47811;BME280;33575;52.600;7.318;2024-02-16T07:28:35;100692.71;;;10.71;97.03
47811;BME280;33575;52.600;7.318;2024-02-16T07:31:06;100691.68;;;10.78;96.80
47811;BME280;33575;52.600;7.318;2024-02-16T07:33:36;100699.67;;;10.89;96.97
47811;BME280;33575;52.600;7.318;2024-02-16T07:36:07;100699.68;;;10.90;96.60
47811;BME280;33575;52.600;7.318;2024-02-16T07:38:36;100699.11;;;10.89;96.41
47811;BME280;33575;52.600;7.318;2024-02-16T07:41:10;100701.40;;;10.95;96.49
47811;BME280;33575;52.600;7.318;2024-02-16T07:43:37;100708.60;;;11.06;96.63
47811;BME280;33575;52.600;7.318;2024-02-16T07:46:08;100715.87;;;11.08;96.84
47811;BME280;33575;52.600;7.318;2024-02-16T07:48:38;100714.56;;;11.15;96.39
47811;BME280;33575;52.600;7.318;2024-02-16T07:51:09;100715.23;;;11.23;96.45
47811;BME280;33575;52.600;7.318;2024-02-16T07:53:39;100707.84;;;11.32;96.72
47811;BME280;33575;52.600;7.318;2024-02-16T07:56:10;100709.38;;;11.38;96.45
47811;BME280;33575;52.600;7.318;2024-02-16T07:58:41;100709.74;;;11.39;95.52
47811;BME280;33575;52.600;7.318;2024-02-16T08:01:12;100705.07;;;11.35;96.33
47811;BME280;33575;52.600;7.318;2024-02-16T08:03:41;100701.53;;;11.37;96.42
47811;BME280;33575;52.600;7.318;2024-02-16T08:06:12;100703.30;;;11.46;96.42
47811;BME280;33575;52.600;7.318;2024-02-16T08:08:42;100713.13;;;11.51;96.33
47811;BME280;33575;52.600;7.318;2024-02-16T08:11:12;100714.91;;;11.51;96.17
47811;BME280;33575;52.600;7.318;2024-02-16T08:13:43;100715.11;;;11.57;95.77
47811;BME280;33575;52.600;7.318;2024-02-16T08:16:13;100718.66;;;11.64;96.09
47811;BME280;33575;52.600;7.318;2024-02-16T08:18:44;100724.98;;;11.69;96.14
47811;BME280;33575;52.600;7.318;2024-02-16T08:21:14;100733.40;;;11.74;95.75
47811;BME280;33575;52.600;7.318;2024-02-16T08:23:45;100734.91;;;11.75;95.83
47811;BME280;33575;52.600;7.318;2024-02-16T08:26:15;100737.89;;;11.79;96.05
47811;BME280;33575;52.600;7.318;2024-02-16T08:28:46;100751.40;;;11.77;95.57
47811;BME280;33575;52.600;7.318;2024-02-16T08:31:17;100748.56;;;11.82;95.47
47811;BME280;33575;52.600;7.318;2024-02-16T08:33:47;100753.33;;;11.84;96.13
47811;BME280;33575;52.600;7.318;2024-02-16T08:36:17;100751.66;;;11.90;95.71
47811;BME280;33575;52.600;7.318;2024-02-16T08:38:47;100747.48;;;11.90;95.72
47811;BME280;33575;52.600;7.318;2024-02-16T08:41:18;100746.06;;;11.81;94.96
47811;BME280;33575;52.600;7.318;2024-02-16T08:43:48;100743.33;;;11.88;95.26
47811;BME280;33575;52.600;7.318;2024-02-16T08:46:18;100744.27;;;11.84;95.03
47811;BME280;33575;52.600;7.318;2024-02-16T08:48:49;100743.44;;;11.91;95.34
47811;BME280;33575;52.600;7.318;2024-02-16T08:51:19;100740.19;;;11.93;95.01
47811;BME280;33575;52.600;7.318;2024-02-16T08:53:50;100738.22;;;12.01;95.42
47811;BME280;33575;52.600;7.318;2024-02-16T08:56:20;100738.55;;;12.07;95.67
47811;BME280;33575;52.600;7.318;2024-02-16T08:58:50;100734.57;;;12.10;95.67
47811;BME280;33575;52.600;7.318;2024-02-16T09:03:51;100739.34;;;12.18;95.85
47811;BME280;33575;52.600;7.318;2024-02-16T09:06:22;100747.24;;;12.19;96.29
47811;BME280;33575;52.600;7.318;2024-02-16T09:08:52;100747.91;;;12.23;96.08
47811;BME280;33575;52.600;7.318;2024-02-16T09:11:23;100755.25;;;12.30;96.25
47811;BME280;33575;52.600;7.318;2024-02-16T09:13:53;100752.72;;;12.32;96.06
47811;BME280;33575;52.600;7.318;2024-02-16T09:16:26;100750.95;;;12.35;96.33
47811;BME280;33575;52.600;7.318;2024-02-16T09:18:54;100761.17;;;12.46;95.98
47811;BME280;33575;52.600;7.318;2024-02-16T09:21:24;100759.96;;;12.50;96.16
47811;BME280;33575;52.600;7.318;2024-02-16T09:23:55;100764.41;;;12.54;96.09
47811;BME280;33575;52.600;7.318;2024-02-16T09:26:25;100762.64;;;12.56;96.58
47811;BME280;33575;52.600;7.318;2024-02-16T09:28:56;100774.01;;;12.66;96.41
47811;BME280;33575;52.600;7.318;2024-02-16T09:31:26;100780.84;;;12.69;96.45
47811;BME280;33575;52.600;7.318;2024-02-16T09:33:57;100780.40;;;12.75;96.09
47811;BME280;33575;52.600;7.318;2024-02-16T09:36:27;100787.90;;;12.87;96.19
47811;BME280;33575;52.600;7.318;2024-02-16T09:38:57;100790.67;;;12.85;96.69
47811;BME280;33575;52.600;7.318;2024-02-16T09:41:28;100794.02;;;12.93;96.14
47811;BME280;33575;52.600;7.318;2024-02-16T09:43:58;100794.73;;;12.99;96.22
47811;BME280;33575;52.600;7.318;2024-02-16T09:46:30;100786.70;;;13.11;96.50
47811;BME280;33575;52.600;7.318;2024-02-16T09:49:01;100786.51;;;13.16;96.29
47811;BME280;33575;52.600;7.318;2024-02-16T09:51:30;100790.36;;;13.17;96.33
47811;BME280;33575;52.600;7.318;2024-02-16T09:54:01;100796.08;;;13.23;95.66
47811;BME280;33575;52.600;7.318;2024-02-16T09:56:30;100793.31;;;13.28;95.28
47811;BME280;33575;52.600;7.318;2024-02-16T09:59:00;100795.14;;;13.37;95.71
47811;BME280;33575;52.600;7.318;2024-02-16T10:01:31;100806.62;;;13.40;95.71
47811;BME280;33575;52.600;7.318;2024-02-16T10:04:06;100808.18;;;13.40;95.55
47811;BME280;33575;52.600;7.318;2024-02-16T10:06:32;100809.89;;;13.46;95.31
47811;BME280;33575;52.600;7.318;2024-02-16T10:09:02;100814.09;;;13.44;95.13
47811;BME280;33575;52.600;7.318;2024-02-16T10:11:33;100811.94;;;13.53;95.05
47811;BME280;33575;52.600;7.318;2024-02-16T10:14:03;100816.79;;;13.57;94.37
47811;BME280;33575;52.600;7.318;2024-02-16T10:16:33;100815.89;;;13.69;94.44
47811;BME280;33575;52.600;7.318;2024-02-16T10:19:04;100819.45;;;13.80;94.33
47811;BME280;33575;52.600;7.318;2024-02-16T10:21:34;100823.01;;;13.78;94.05
47811;BME280;33575;52.600;7.318;2024-02-16T10:24:06;100830.17;;;13.68;94.23
47811;BME280;33575;52.600;7.318;2024-02-16T10:26:35;100834.25;;;13.73;92.93
47811;BME280;33575;52.600;7.318;2024-02-16T10:29:07;100842.39;;;13.81;93.76
47811;BME280;33575;52.600;7.318;2024-02-16T10:31:36;100838.25;;;13.82;93.79
47811;BME280;33575;52.600;7.318;2024-02-16T10:34:07;100847.34;;;13.84;94.14
47811;BME280;33575;52.600;7.318;2024-02-16T10:36:38;100852.12;;;13.87;93.74
47811;BME280;33575;52.600;7.318;2024-02-16T10:39:08;100854.90;;;13.82;94.09
47811;BME280;33575;52.600;7.318;2024-02-16T10:41:38;100860.14;;;13.86;94.12
47811;BME280;33575;52.600;7.318;2024-02-16T10:44:08;100859.28;;;13.84;93.91
47811;BME280;33575;52.600;7.318;2024-02-16T10:46:39;100860.11;;;13.90;93.80
47811;BME280;33575;52.600;7.318;2024-02-16T10:49:10;100868.39;;;13.84;94.13
47811;BME280;33575;52.600;7.318;2024-02-16T10:51:43;100872.00;;;13.78;94.42
47811;BME280;33575;52.600;7.318;2024-02-16T10:54:10;100873.28;;;13.81;94.16
47811;BME280;33575;52.600;7.318;2024-02-16T10:56:40;100876.66;;;13.62;94.50
47811;BME280;33575;52.600;7.318;2024-02-16T10:59:11;100873.95;;;13.74;94.77
47811;BME280;33575;52.600;7.318;2024-02-16T11:01:42;100879.18;;;13.81;94.54
47811;BME280;33575;52.600;7.318;2024-02-16T11:04:13;100875.67;;;13.81;94.49
47811;BME280;33575;52.600;7.318;2024-02-16T11:06:46;100865.57;;;13.65;95.32
47811;BME280;33575;52.600;7.318;2024-02-16T11:11:50;100875.33;;;13.76;95.56
47811;BME280;33575;52.600;7.318;2024-02-16T11:14:15;100879.06;;;13.79;95.42
47811;BME280;33575;52.600;7.318;2024-02-16T11:16:44;100875.23;;;13.86;94.29
47811;BME280;33575;52.600;7.318;2024-02-16T11:19:14;100876.24;;;13.83;94.61
47811;BME280;33575;52.600;7.318;2024-02-16T11:24:14;100875.96;;;13.86;94.34
47811;BME280;33575;52.600;7.318;2024-02-16T11:26:45;100882.71;;;13.79;94.54
47811;BME280;33575;52.600;7.318;2024-02-16T11:29:15;100889.91;;;13.89;94.39
47811;BME280;33575;52.600;7.318;2024-02-16T11:31:46;100896.34;;;13.87;93.91
47811;BME280;33575;52.600;7.318;2024-02-16T11:34:21;100895.72;;;13.78;93.55
47811;BME280;33575;52.600;7.318;2024-02-16T11:36:46;100896.25;;;13.59;94.05
47811;BME280;33575;52.600;7.318;2024-02-16T11:39:17;100897.71;;;13.68;94.03
47811;BME280;33575;52.600;7.318;2024-02-16T11:41:47;100898.99;;;13.64;94.09
47811;BME280;33575;52.600;7.318;2024-02-16T11:44:17;100897.44;;;13.64;94.23
47811;BME280;33575;52.600;7.318;2024-02-16T11:46:48;100897.38;;;13.69;94.56
47811;BME280;33575;52.600;7.318;2024-02-16T11:49:18;100902.40;;;13.68;94.66
47811;BME280;33575;52.600;7.318;2024-02-16T11:51:49;100905.85;;;13.72;94.40
47811;BME280;33575;52.600;7.318;2024-02-16T11:54:19;100912.93;;;13.78;94.45
47811;BME280;33575;52.600;7.318;2024-02-16T11:56:51;100913.81;;;13.68;94.72
47811;BME280;33575;52.600;7.318;2024-02-16T11:59:20;100916.39;;;13.67;94.92
47811;BME280;33575;52.600;7.318;2024-02-16T12:01:51;100919.76;;;13.65;95.39
47811;BME280;33575;52.600;7.318;2024-02-16T12:04:23;100926.61;;;13.62;94.57
47811;BME280;33575;52.600;7.318;2024-02-16T12:06:52;100938.85;;;13.45;95.10
47811;BME280;33575;52.600;7.318;2024-02-16T12:09:22;100940.84;;;13.40;94.69
47811;BME280;33575;52.600;7.318;2024-02-16T12:11:53;100940.67;;;13.35;95.70
47811;BME280;33575;52.600;7.318;2024-02-16T12:14:23;100941.06;;;13.26;96.17
47811;BME280;33575;52.600;7.318;2024-02-16T12:16:57;100944.12;;;13.23;95.68
47811;BME280;33575;52.600;7.318;2024-02-16T12:19:24;100949.58;;;13.05;96.23
47811;BME280;33575;52.600;7.318;2024-02-16T12:21:55;100957.18;;;13.14;96.23
47811;BME280;33575;52.600;7.318;2024-02-16T12:24:24;100959.83;;;13.08;96.67
47811;BME280;33575;52.600;7.318;2024-02-16T12:26:54;100969.51;;;13.00;97.22
47811;BME280;33575;52.600;7.318;2024-02-16T12:29:24;100980.61;;;12.92;97.83
47811;BME280;33575;52.600;7.318;2024-02-16T12:31:55;100986.30;;;12.73;99.24
47811;BME280;33575;52.600;7.318;2024-02-16T12:34:26;100990.94;;;12.76;99.89
47811;BME280;33575;52.600;7.318;2024-02-16T12:36:56;100988.05;;;12.68;100.00
47811;BME280;33575;52.600;7.318;2024-02-16T12:39:26;100987.76;;;12.75;100.00
47811;BME280;33575;52.600;7.318;2024-02-16T12:41:57;100991.97;;;12.80;100.00
47811;BME280;33575;52.600;7.318;2024-02-16T12:44:27;100989.48;;;12.68;99.68
47811;BME280;33575;52.600;7.318;2024-02-16T12:46:57;100992.55;;;12.58;97.34
47811;BME280;33575;52.600;7.318;2024-02-16T12:49:30;100989.85;;;12.47;97.44
47811;BME280;33575;52.600;7.318;2024-02-16T12:51:58;100996.12;;;12.44;98.58
47811;BME280;33575;52.600;7.318;2024-02-16T12:54:28;101000.36;;;12.40;99.60
47811;BME280;33575;52.600;7.318;2024-02-16T12:56:59;101003.33;;;12.40;98.89
47811;BME280;33575;52.600;7.318;2024-02-16T12:59:29;101008.40;;;12.42;99.49
47811;BME280;33575;52.600;7.318;2024-02-16T13:01:59;101011.77;;;12.50;99.54
47811;BME280;33575;52.600;7.318;2024-02-16T13:04:30;101017.76;;;12.51;99.83
47811;BME280;33575;52.600;7.318;2024-02-16T13:07:00;101020.56;;;12.53;100.00
47811;BME280;33575;52.600;7.318;2024-02-16T13:09:30;101023.31;;;12.54;99.59
47811;BME280;33575;52.600;7.318;2024-02-16T13:12:01;101028.53;;;12.56;99.67